Time;durP1;ratioP1;P1;durP2;ratioP2;P2;SDS_P1;SDS_P2;PMS_P1;PMS_P2;Temp;Humidity;BMP_temperature;BMP_pressure;BME280_temperature;BME280_humidity;BME280_pressure;Samples;Min_cycle;Max_cycle;Signal;HPM_P1;HPM_P2
2021/04/30 00:00:43;;;;;;;;;;;22.70;40.70;;;;;;1565317;74;800;-66
2021/04/30 00:02:45;;;;;;;;;;;22.80;40.70;;;;;;1553816;74;1932;-66
2021/04/30 00:04:47;;;;;;;;;;;22.80;40.80;;;;;;1561775;74;824;-65
2021/04/30 00:06:49;;;;;;;;;;;22.80;40.70;;;;;;1555040;74;1119;-66
2021/04/30 00:08:51;;;;;;;;;;;22.80;40.70;;;;;;1554609;74;868;-66
2021/04/30 00:10:53;;;;;;;;;;;22.70;40.80;;;;;;1561764;74;862;-67
2021/04/30 00:12:55;;;;;;;;;;;22.80;40.90;;;;;;1556204;74;784;-66
2021/04/30 00:14:56;;;;;;;;;;;22.70;41.00;;;;;;1554203;74;1161;-66
2021/04/30 00:16:58;;;;;;;;;;;22.70;40.90;;;;;;1557014;74;795;-66
2021/04/30 00:19:00;;;;;;;;;;;22.70;40.90;;;;;;1555382;74;754;-67
2021/04/30 00:21:02;;;;;;;;;;;22.70;40.90;;;;;;1561610;74;684;-67
2021/04/30 00:23:12;;;;;;;;;;;22.80;40.90;;;;;;1551961;74;1896;-67
2021/04/30 00:25:09;;;;;;;;;;;22.70;40.90;;;;;;1557229;74;1737;-67
2021/04/30 00:27:10;;;;;;;;;;;22.70;41.00;;;;;;1554989;74;731;-66
2021/04/30 00:29:12;;;;;;;;;;;22.70;41.00;;;;;;1556634;74;762;-66
2021/04/30 00:31:15;;;;;;;;;;;22.70;41.00;;;;;;1545841;74;859;-69
2021/04/30 00:33:17;;;;;;;;;;;22.70;41.00;;;;;;1549086;74;1400;-66
2021/04/30 00:35:19;;;;;;;;;;;22.70;41.00;;;;;;1549519;74;1142;-66
2021/04/30 00:37:20;;;;;;;;;;;22.80;41.10;;;;;;1555448;74;790;-67
2021/04/30 00:39:22;;;;;;;;;;;22.80;41.10;;;;;;1554990;74;727;-68
2021/04/30 00:41:24;;;;;;;;;;;22.70;41.10;;;;;;1564259;74;1940;-69
2021/04/30 00:43:26;;;;;;;;;;;22.80;41.00;;;;;;1553697;74;743;-66
2021/04/30 00:45:28;;;;;;;;;;;22.70;41.30;;;;;;1557171;74;1175;-66
2021/04/30 00:47:31;;;;;;;;;;;22.70;41.20;;;;;;1547757;74;770;-66
2021/04/30 00:49:32;;;;;;;;;;;22.80;41.30;;;;;;1560053;74;759;-66
2021/04/30 00:51:34;;;;;;;;;;;22.60;41.30;;;;;;1554126;74;906;-66
2021/04/30 00:53:36;;;;;;;;;;;22.70;41.30;;;;;;1565021;74;801;-66
2021/04/30 00:55:38;;;;;;;;;;;22.70;41.40;;;;;;1572016;74;1156;-66
2021/04/30 00:57:41;;;;;;;;;;;22.60;41.20;;;;;;1573374;74;782;-66
2021/04/30 00:59:43;;;;;;;;;;;22.70;41.40;;;;;;1569377;74;735;-66
2021/04/30 01:01:45;;;;;;;;;;;22.70;41.30;;;;;;1552912;74;1942;-66
2021/04/30 01:03:47;;;;;;;;;;;22.60;41.30;;;;;;1574670;74;729;-66
2021/04/30 01:05:49;;;;;;;;;;;22.70;41.40;;;;;;1564880;74;1183;-66
2021/04/30 01:07:51;;;;;;;;;;;22.60;41.40;;;;;;1578622;74;909;-65
2021/04/30 01:09:55;;;;;;;;;;;22.70;41.50;;;;;;1564908;74;618;-68
2021/04/30 01:11:56;;;;;;;;;;;22.70;41.50;;;;;;1578932;74;1634;-67
2021/04/30 01:13:58;;;;;;;;;;;22.80;41.50;;;;;;1565578;74;625;-67
2021/04/30 01:16:00;;;;;;;;;;;22.70;41.50;;;;;;1571791;74;1157;-66
2021/04/30 01:18:02;;;;;;;;;;;22.80;41.40;;;;;;1569118;74;806;-66
2021/04/30 01:20:04;;;;;;;;;;;22.70;41.40;;;;;;1573736;74;781;-66
2021/04/30 01:22:06;;;;;;;;;;;22.70;41.50;;;;;;1557877;74;1946;-66
2021/04/30 01:24:08;;;;;;;;;;;22.80;41.50;;;;;;1569631;74;781;-67
2021/04/30 01:26:10;;;;;;;;;;;22.70;41.40;;;;;;1557738;74;1160;-63
2021/04/30 01:28:12;;;;;;;;;;;22.80;41.50;;;;;;1570615;74;795;-66
2021/04/30 01:30:15;;;;;;;;;;;22.80;41.50;;;;;;1565253;74;735;-66
2021/04/30 01:32:17;;;;;;;;;;;22.70;41.40;;;;;;1566234;74;764;-66
2021/04/30 01:34:19;;;;;;;;;;;22.70;41.40;;;;;;1561575;74;801;-69
2021/04/30 01:36:21;;;;;;;;;;;22.70;41.30;;;;;;1567485;74;1118;-66
2021/04/30 01:38:23;;;;;;;;;;;22.80;41.40;;;;;;1558887;74;788;-66
2021/04/30 01:40:29;;;;;;;;;;;22.80;41.20;;;;;;1562877;74;748;-67
2021/04/30 01:42:31;;;;;;;;;;;22.80;41.30;;;;;;1563490;74;1935;-66
2021/04/30 01:44:33;;;;;;;;;;;22.80;41.20;;;;;;1558366;74;715;-66
2021/04/30 01:46:36;;;;;;;;;;;22.80;41.10;;;;;;1555497;74;3150;-63
2021/04/30 01:48:38;;;;;;;;;;;22.80;41.00;;;;;;1538798;76;760;-63
2021/04/30 01:50:40;;;;;;;;;;;22.80;41.10;;;;;;1544830;76;702;-64
2021/04/30 01:52:42;;;;;;;;;;;22.80;41.10;;;;;;1535355;76;807;-63
2021/04/30 01:54:50;;;;;;;;;;;22.80;41.20;;;;;;1541743;76;766;-64
2021/04/30 01:56:52;;;;;;;;;;;22.80;41.20;;;;;;1539174;76;1205;-64
2021/04/30 01:58:54;;;;;;;;;;;22.80;41.20;;;;;;1531690;76;800;-64
2021/04/30 02:00:56;;;;;;;;;;;22.80;41.10;;;;;;1533453;76;727;-64
2021/04/30 02:02:59;;;;;;;;;;;22.70;41.20;;;;;;1528060;76;1944;-65
2021/04/30 02:05:00;;;;;;;;;;;22.80;41.10;;;;;;1536790;76;663;-64
2021/04/30 02:07:02;;;;;;;;;;;22.70;41.20;;;;;;1530709;76;1189;-64
2021/04/30 02:09:05;;;;;;;;;;;22.70;41.20;;;;;;1537286;76;777;-64
2021/04/30 02:11:07;;;;;;;;;;;22.80;41.30;;;;;;1532843;76;732;-64
2021/04/30 02:13:09;;;;;;;;;;;22.70;41.20;;;;;;1532546;76;795;-64
2021/04/30 02:15:11;;;;;;;;;;;22.80;41.30;;;;;;1534196;75;826;-64
2021/04/30 02:17:13;;;;;;;;;;;22.80;41.30;;;;;;1536591;76;1126;-64
2021/04/30 02:19:15;;;;;;;;;;;22.80;41.50;;;;;;1533322;75;815;-61
2021/04/30 02:21:17;;;;;;;;;;;22.80;41.40;;;;;;1528625;76;802;-64
2021/04/30 02:23:19;;;;;;;;;;;22.80;41.40;;;;;;1530135;76;1959;-64
2021/04/30 02:25:21;;;;;;;;;;;22.70;41.40;;;;;;1532829;76;774;-65
2021/04/30 02:27:23;;;;;;;;;;;22.80;41.30;;;;;;1538142;76;1124;-61
2021/04/30 02:29:25;;;;;;;;;;;22.80;41.50;;;;;;1530154;76;736;-64
2021/04/30 02:31:27;;;;;;;;;;;22.80;41.50;;;;;;1543354;76;748;-63
2021/04/30 02:33:29;;;;;;;;;;;22.80;41.50;;;;;;1535711;76;746;-64
2021/04/30 02:35:32;;;;;;;;;;;22.80;41.40;;;;;;1551375;76;1178;-63
2021/04/30 02:37:34;;;;;;;;;;;22.80;41.30;;;;;;1534717;76;794;-62
2021/04/30 02:39:36;;;;;;;;;;;22.80;41.40;;;;;;1539476;75;716;-65
2021/04/30 02:41:38;;;;;;;;;;;22.80;41.30;;;;;;1542644;75;744;-64
2021/04/30 02:43:40;;;;;;;;;;;22.90;41.60;;;;;;1542943;75;1929;-65
2021/04/30 02:45:42;;;;;;;;;;;22.90;41.60;;;;;;1542841;76;1177;-65
2021/04/30 02:47:50;;;;;;;;;;;22.80;41.50;;;;;;1536951;76;796;-65
2021/04/30 02:49:49;;;;;;;;;;;22.70;41.50;;;;;;1541197;76;1608;-64
2021/04/30 02:51:51;;;;;;;;;;;22.80;41.50;;;;;;1552915;76;623;-64
2021/04/30 02:53:53;;;;;;;;;;;22.80;41.30;;;;;;1522851;76;763;-64
2021/04/30 02:55:55;;;;;;;;;;;22.80;41.20;;;;;;1532157;76;1182;-64
2021/04/30 02:57:57;;;;;;;;;;;22.90;41.50;;;;;;1538698;76;742;-65
2021/04/30 03:00:03;;;;;;;;;;;22.90;41.30;;;;;;1541778;76;824;-65
2021/04/30 03:02:05;;;;;;;;;;;22.80;41.20;;;;;;1547681;76;763;-65
2021/04/30 03:04:07;;;;;;;;;;;22.90;41.50;;;;;;1543367;76;856;-66
2021/04/30 03:06:09;;;;;;;;;;;22.80;41.20;;;;;;1541171;76;1272;-65
2021/04/30 03:08:11;;;;;;;;;;;22.80;41.70;;;;;;1543226;75;731;-67
2021/04/30 03:10:13;;;;;;;;;;;22.70;41.50;;;;;;1550204;76;804;-68
2021/04/30 03:12:15;;;;;;;;;;;22.80;41.30;;;;;;1542933;76;813;-69
2021/04/30 03:14:17;;;;;;;;;;;22.60;41.30;;;;;;1537746;75;787;-67
2021/04/30 03:16:19;;;;;;;;;;;22.70;41.40;;;;;;1540620;76;1133;-65
2021/04/30 03:18:20;;;;;;;;;;;22.80;41.00;;;;;;1534806;75;800;-67
2021/04/30 03:20:22;;;;;;;;;;;22.80;40.70;;;;;;1551046;76;746;-67
2021/04/30 03:22:24;;;;;;;;;;;22.80;40.50;;;;;;1544609;76;1930;-67
2021/04/30 03:24:26;;;;;;;;;;;22.90;40.30;;;;;;1538612;76;791;-68
2021/04/30 03:26:28;;;;;;;;;;;22.80;40.00;;;;;;1528652;75;1163;-68
2021/04/30 03:28:30;;;;;;;;;;;22.80;39.90;;;;;;1534661;76;736;-67
2021/04/30 03:30:32;;;;;;;;;;;22.80;39.70;;;;;;1544114;76;898;-66
2021/04/30 03:32:35;;;;;;;;;;;22.70;39.60;;;;;;1543455;75;780;-67
2021/04/30 03:34:37;;;;;;;;;;;22.60;39.60;;;;;;1543841;76;719;-66
2021/04/30 03:36:39;;;;;;;;;;;22.70;39.70;;;;;;1540541;76;1173;-67
2021/04/30 03:38:41;;;;;;;;;;;22.60;39.60;;;;;;1548695;76;738;-68
2021/04/30 03:40:43;;;;;;;;;;;22.50;39.70;;;;;;1547189;75;842;-68
2021/04/30 03:42:45;;;;;;;;;;;22.40;39.70;;;;;;1528284;76;1936;-66
2021/04/30 03:44:47;;;;;;;;;;;22.40;39.60;;;;;;1538921;76;820;-67
2021/04/30 03:46:48;;;;;;;;;;;22.40;39.80;;;;;;1536778;76;1157;-67
2021/04/30 03:48:50;;;;;;;;;;;22.30;39.70;;;;;;1537151;75;781;-67
2021/04/30 03:50:52;;;;;;;;;;;22.40;39.70;;;;;;1555745;75;799;-66
2021/04/30 03:52:54;;;;;;;;;;;22.30;39.80;;;;;;1548320;76;775;-67
2021/04/30 03:54:56;;;;;;;;;;;22.30;39.80;;;;;;1535276;76;816;-67
2021/04/30 03:56:59;;;;;;;;;;;22.40;39.70;;;;;;1548399;75;1169;-68
2021/04/30 03:59:00;;;;;;;;;;;22.30;39.80;;;;;;1546897;76;723;-67
2021/04/30 04:01:02;;;;;;;;;;;22.30;39.80;;;;;;1534136;76;829;-68
2021/04/30 04:03:04;;;;;;;;;;;22.30;39.80;;;;;;1542715;76;1934;-70
2021/04/30 04:05:07;;;;;;;;;;;22.30;39.90;;;;;;1539749;75;742;-68
2021/04/30 04:07:09;;;;;;;;;;;22.30;39.70;;;;;;1526836;76;1195;-68
2021/04/30 04:09:10;;;;;;;;;;;22.20;39.70;;;;;;1540524;75;685;-67
2021/04/30 04:11:12;;;;;;;;;;;22.20;39.80;;;;;;1538951;76;717;-67
2021/04/30 04:13:15;;;;;;;;;;;22.20;39.70;;;;;;1532117;76;784;-66
2021/04/30 04:15:17;;;;;;;;;;;22.30;39.70;;;;;;1530424;76;714;-68
2021/04/30 04:17:19;;;;;;;;;;;22.40;39.60;;;;;;1539814;75;1108;-66
2021/04/30 04:19:21;;;;;;;;;;;22.40;39.80;;;;;;1528043;76;826;-68
2021/04/30 04:21:23;;;;;;;;;;;22.30;39.70;;;;;;1544331;75;753;-67
2021/04/30 04:23:25;;;;;;;;;;;22.30;39.70;;;;;;1540947;75;1924;-66
2021/04/30 04:25:27;;;;;;;;;;;22.30;39.80;;;;;;1538503;75;1099;-65
2021/04/30 04:27:29;;;;;;;;;;;22.30;39.50;;;;;;1537363;76;777;-66
2021/04/30 04:29:30;;;;;;;;;;;22.30;39.80;;;;;;1532773;75;761;-67
2021/04/30 04:31:34;;;;;;;;;;;22.30;39.80;;;;;;1532118;76;646;-67
2021/04/30 04:33:36;;;;;;;;;;;22.30;40.00;;;;;;1538903;75;797;-66
2021/04/30 04:35:38;;;;;;;;;;;22.30;40.00;;;;;;1537005;76;1129;-66
2021/04/30 04:37:39;;;;;;;;;;;22.30;40.30;;;;;;1535413;75;873;-67
2021/04/30 04:39:41;;;;;;;;;;;22.30;40.30;;;;;;1537045;76;777;-66
2021/04/30 04:41:43;;;;;;;;;;;22.20;40.00;;;;;;1529990;75;711;-66
2021/04/30 04:43:45;;;;;;;;;;;22.20;40.40;;;;;;1542228;76;1940;-66
2021/04/30 04:45:47;;;;;;;;;;;22.30;40.20;;;;;;1537131;75;1147;-67
2021/04/30 04:47:49;;;;;;;;;;;22.20;40.00;;;;;;1534622;76;807;-65
2021/04/30 04:49:51;;;;;;;;;;;22.10;40.50;;;;;;1533666;76;862;-68
2021/04/30 04:51:53;;;;;;;;;;;22.20;40.40;;;;;;1536225;76;911;-66
2021/04/30 04:53:55;;;;;;;;;;;22.10;40.30;;;;;;1541580;75;769;-66
2021/04/30 04:55:56;;;;;;;;;;;22.20;39.90;;;;;;1537901;76;1145;-65
2021/04/30 04:57:58;;;;;;;;;;;22.30;39.70;;;;;;1537686;76;783;-69
2021/04/30 05:00:00;;;;;;;;;;;22.50;39.70;;;;;;1537107;76;703;-67
2021/04/30 05:02:02;;;;;;;;;;;22.60;39.30;;;;;;1540676;76;676;-67
2021/04/30 05:04:04;;;;;;;;;;;22.50;39.20;;;;;;1540401;75;1940;-68
2021/04/30 05:06:06;;;;;;;;;;;22.60;38.90;;;;;;1532263;76;1203;-66
2021/04/30 05:08:08;;;;;;;;;;;22.60;38.70;;;;;;1541318;76;670;-67
2021/04/30 05:10:11;;;;;;;;;;;22.60;38.40;;;;;;1534472;75;811;-67
2021/04/30 05:12:12;;;;;;;;;;;22.70;38.40;;;;;;1540713;75;751;-65
2021/04/30 05:14:14;;;;;;;;;;;22.80;38.00;;;;;;1535581;76;746;-67
2021/04/30 05:16:16;;;;;;;;;;;22.70;38.10;;;;;;1542156;76;1142;-66
2021/04/30 05:18:19;;;;;;;;;;;22.80;37.90;;;;;;1534099;76;756;-65
2021/04/30 05:20:20;;;;;;;;;;;22.80;38.10;;;;;;1543725;75;812;-65
2021/04/30 05:22:22;;;;;;;;;;;22.70;38.30;;;;;;1541600;76;762;-66
2021/04/30 05:24:24;;;;;;;;;;;22.60;38.40;;;;;;1535665;76;1943;-66
2021/04/30 05:26:29;;;;;;;;;;;22.60;38.60;;;;;;1545773;75;1154;-66
2021/04/30 05:28:31;;;;;;;;;;;22.60;38.40;;;;;;1545004;76;786;-66
2021/04/30 05:30:33;;;;;;;;;;;22.60;38.30;;;;;;1534446;76;829;-66
2021/04/30 05:32:35;;;;;;;;;;;22.60;38.00;;;;;;1549121;75;787;-66
2021/04/30 05:34:38;;;;;;;;;;;22.60;38.50;;;;;;1542376;76;760;-66
2021/04/30 05:36:39;;;;;;;;;;;22.60;38.60;;;;;;1534012;76;1151;-65
2021/04/30 05:38:41;;;;;;;;;;;22.60;38.40;;;;;;1541337;75;808;-64
2021/04/30 05:40:43;;;;;;;;;;;22.50;37.60;;;;;;1550118;75;733;-64
2021/04/30 05:42:45;;;;;;;;;;;22.50;38.60;;;;;;1537241;76;788;-65
2021/04/30 05:44:47;;;;;;;;;;;22.60;38.50;;;;;;1541238;75;1944;-65
2021/04/30 05:46:49;;;;;;;;;;;22.60;38.40;;;;;;1540193;76;1150;-64
2021/04/30 05:48:51;;;;;;;;;;;22.80;38.50;;;;;;1537861;76;803;-65
2021/04/30 05:50:52;;;;;;;;;;;22.80;38.30;;;;;;1549231;76;827;-65
2021/04/30 05:52:54;;;;;;;;;;;22.80;38.20;;;;;;1532645;76;836;-64
2021/04/30 05:54:56;;;;;;;;;;;22.70;38.40;;;;;;1527143;76;808;-64
2021/04/30 05:56:58;;;;;;;;;;;22.70;38.40;;;;;;1528330;76;1168;-66
2021/04/30 05:59:00;;;;;;;;;;;22.60;39.00;;;;;;1541745;76;878;-65
2021/04/30 06:01:02;;;;;;;;;;;22.60;38.60;;;;;;1541204;76;788;-69
2021/04/30 06:03:04;;;;;;;;;;;22.50;39.10;;;;;;1533623;75;807;-67
2021/04/30 06:05:06;;;;;;;;;;;22.50;38.80;;;;;;1536655;76;1947;-67
2021/04/30 06:07:08;;;;;;;;;;;22.50;38.60;;;;;;1534134;75;1165;-68
2021/04/30 06:09:10;;;;;;;;;;;22.70;38.60;;;;;;1538558;76;686;-69
2021/04/30 06:11:12;;;;;;;;;;;22.60;38.00;;;;;;1533222;76;782;-70
2021/04/30 06:13:13;;;;;;;;;;;22.60;38.10;;;;;;1534675;75;821;-67
2021/04/30 06:15:16;;;;;;;;;;;22.60;38.10;;;;;;1533187;76;776;-66
2021/04/30 06:17:19;;;;;;;;;;;22.70;38.10;;;;;;1545311;76;1059;-67
2021/04/30 06:19:21;;;;;;;;;;;22.70;37.90;;;;;;1542291;76;732;-68
2021/04/30 06:21:23;;;;;;;;;;;22.60;37.90;;;;;;1541677;76;788;-68
2021/04/30 06:23:25;;;;;;;;;;;22.70;37.90;;;;;;1539378;75;1948;-68
2021/04/30 06:25:26;;;;;;;;;;;22.70;37.90;;;;;;1529683;75;1124;-68
2021/04/30 06:27:28;;;;;;;;;;;22.60;37.90;;;;;;1530177;76;793;-67
2021/04/30 06:29:30;;;;;;;;;;;22.60;37.80;;;;;;1529205;76;783;-68
2021/04/30 06:31:32;;;;;;;;;;;22.60;37.80;;;;;;1537390;76;813;-68
2021/04/30 06:33:34;;;;;;;;;;;22.60;37.80;;;;;;1530468;76;711;-69
2021/04/30 06:35:36;;;;;;;;;;;22.60;37.80;;;;;;1542933;76;1173;-67
2021/04/30 06:37:38;;;;;;;;;;;22.60;37.80;;;;;;1540616;76;708;-67
2021/04/30 06:39:40;;;;;;;;;;;22.60;37.80;;;;;;1545110;75;769;-68
2021/04/30 06:41:42;;;;;;;;;;;22.60;37.60;;;;;;1539625;76;672;-68
2021/04/30 06:43:44;;;;;;;;;;;22.60;37.70;;;;;;1552127;76;1945;-68
2021/04/30 06:45:46;;;;;;;;;;;22.60;37.60;;;;;;1553248;75;1181;-67
2021/04/30 06:47:47;;;;;;;;;;;22.60;37.60;;;;;;1539090;75;814;-67
2021/04/30 06:49:49;;;;;;;;;;;22.60;37.60;;;;;;1545222;76;805;-68
2021/04/30 06:51:51;;;;;;;;;;;22.60;37.60;;;;;;1540508;76;798;-67
2021/04/30 06:53:53;;;;;;;;;;;22.60;37.50;;;;;;1534020;76;712;-68
2021/04/30 06:55:55;;;;;;;;;;;22.50;37.70;;;;;;1551946;75;1176;-68
2021/04/30 06:57:57;;;;;;;;;;;22.50;37.60;;;;;;1534132;76;787;-68
2021/04/30 06:59:59;;;;;;;;;;;22.60;37.60;;;;;;1539419;76;667;-68
2021/04/30 07:02:02;;;;;;;;;;;22.50;37.60;;;;;;1532946;76;725;-67
2021/04/30 07:04:07;;;;;;;;;;;22.50;37.60;;;;;;1548791;75;1930;-68
2021/04/30 07:06:08;;;;;;;;;;;22.50;37.60;;;;;;1537466;75;1696;-68
2021/04/30 07:08:09;;;;;;;;;;;22.50;37.70;;;;;;1533423;76;660;-68
2021/04/30 07:10:12;;;;;;;;;;;22.50;37.60;;;;;;1534336;75;751;-68
2021/04/30 07:12:14;;;;;;;;;;;22.60;37.60;;;;;;1538267;75;845;-68
2021/04/30 07:14:16;;;;;;;;;;;22.50;37.60;;;;;;1549164;75;787;-66
2021/04/30 07:16:18;;;;;;;;;;;22.50;37.60;;;;;;1539550;75;1155;-70
2021/04/30 07:18:19;;;;;;;;;;;22.50;37.50;;;;;;1550348;75;849;-67
2021/04/30 07:20:21;;;;;;;;;;;22.50;37.50;;;;;;1533832;76;808;-68
2021/04/30 07:22:23;;;;;;;;;;;22.50;37.60;;;;;;1533082;75;754;-67
2021/04/30 07:24:25;;;;;;;;;;;22.50;37.50;;;;;;1537385;75;1912;-68
2021/04/30 07:26:27;;;;;;;;;;;22.50;37.40;;;;;;1540159;76;1134;-67
2021/04/30 07:28:29;;;;;;;;;;;22.60;37.40;;;;;;1539946;75;827;-67
2021/04/30 07:30:31;;;;;;;;;;;22.50;37.40;;;;;;1532396;76;746;-67
2021/04/30 07:32:33;;;;;;;;;;;22.50;37.40;;;;;;1537084;75;743;-68
2021/04/30 07:34:34;;;;;;;;;;;22.60;37.40;;;;;;1529794;76;715;-67
2021/04/30 07:36:36;;;;;;;;;;;22.50;37.30;;;;;;1536910;75;1155;-66
2021/04/30 07:38:38;;;;;;;;;;;22.50;37.40;;;;;;1526013;75;716;-67
2021/04/30 07:40:40;;;;;;;;;;;22.60;37.40;;;;;;1531602;75;787;-66
2021/04/30 07:42:43;;;;;;;;;;;22.60;37.30;;;;;;1537188;76;737;-67
2021/04/30 07:44:46;;;;;;;;;;;22.50;37.30;;;;;;1522476;76;1890;-66
2021/04/30 07:46:48;;;;;;;;;;;22.60;37.30;;;;;;1517454;74;2028;-68
2021/04/30 07:48:50;;;;;;;;;;;22.60;37.30;;;;;;1502251;78;710;-63
2021/04/30 07:50:52;;;;;;;;;;;22.50;37.30;;;;;;1519034;78;660;-66
2021/04/30 07:52:54;;;;;;;;;;;22.50;37.30;;;;;;1504215;78;826;-67
2021/04/30 07:54:56;;;;;;;;;;;22.60;37.30;;;;;;1517705;78;845;-69
2021/04/30 07:56:58;;;;;;;;;;;22.60;37.20;;;;;;1496146;78;1193;-67
2021/04/30 07:59:00;;;;;;;;;;;22.50;37.20;;;;;;1485534;78;773;-66
2021/04/30 08:01:01;;;;;;;;;;;22.50;37.20;;;;;;1488342;78;781;-69
2021/04/30 08:03:03;;;;;;;;;;;22.50;37.20;;;;;;1488327;78;830;-66
2021/04/30 08:05:06;;;;;;;;;;;22.50;37.20;;;;;;1478994;79;1952;-66
2021/04/30 08:07:08;;;;;;;;;;;22.60;37.20;;;;;;1488940;78;1133;-66
2021/04/30 08:09:10;;;;;;;;;;;22.50;37.10;;;;;;1482505;78;856;-66
2021/04/30 08:11:11;;;;;;;;;;;22.50;37.10;;;;;;1483288;78;664;-66
2021/04/30 08:13:13;;;;;;;;;;;22.50;37.10;;;;;;1474391;78;727;-70
2021/04/30 08:15:16;;;;;;;;;;;22.50;37.10;;;;;;1479705;78;746;-66
2021/04/30 08:17:18;;;;;;;;;;;22.50;37.10;;;;;;1474523;78;1153;-66
2021/04/30 08:19:20;;;;;;;;;;;22.50;37.10;;;;;;1484213;78;983;-66
2021/04/30 08:21:22;;;;;;;;;;;22.60;37.10;;;;;;1487139;78;727;-66
2021/04/30 08:23:24;;;;;;;;;;;22.50;37.10;;;;;;1478075;78;661;-69
2021/04/30 08:25:26;;;;;;;;;;;22.60;37.10;;;;;;1484074;78;1946;-68
2021/04/30 08:27:27;;;;;;;;;;;22.40;37.50;;;;;;1483772;78;1069;-67
2021/04/30 08:29:29;;;;;;;;;;;22.30;37.90;;;;;;1478670;78;784;-69
2021/04/30 08:31:31;;;;;;;;;;;22.40;37.90;;;;;;1490248;78;673;-66
2021/04/30 08:33:33;;;;;;;;;;;22.50;38.10;;;;;;1487779;78;894;-67
2021/04/30 08:35:35;;;;;;;;;;;22.60;37.90;;;;;;1489749;78;734;-67
2021/04/30 08:37:37;;;;;;;;;;;22.70;37.80;;;;;;1486207;77;1084;-66
2021/04/30 08:39:39;;;;;;;;;;;22.60;37.60;;;;;;1500811;78;655;-67
2021/04/30 08:41:41;;;;;;;;;;;22.70;37.50;;;;;;1482941;78;728;-66
2021/04/30 08:43:43;;;;;;;;;;;22.80;37.20;;;;;;1495928;78;740;-67
2021/04/30 08:45:45;;;;;;;;;;;23.00;37.10;;;;;;1488342;78;1952;-69
2021/04/30 08:47:47;;;;;;;;;;;23.00;36.90;;;;;;1476295;78;840;-69
2021/04/30 08:49:49;;;;;;;;;;;23.00;36.80;;;;;;1485699;78;863;-66
2021/04/30 08:51:51;;;;;;;;;;;23.00;36.60;;;;;;1485287;78;744;-65
2021/04/30 08:53:53;;;;;;;;;;;23.00;36.50;;;;;;1494148;78;741;-66
2021/04/30 08:55:58;;;;;;;;;;;23.10;36.70;;;;;;1488630;78;1136;-67
2021/04/30 08:57:59;;;;;;;;;;;23.00;36.60;;;;;;1478528;78;1736;-68
2021/04/30 09:00:01;;;;;;;;;;;23.00;37.10;;;;;;1489039;78;852;-67
2021/04/30 09:02:02;;;;;;;;;;;23.00;37.80;;;;;;1491891;78;809;-67
2021/04/30 09:04:06;;;;;;;;;;;23.10;37.90;;;;;;1488000;78;706;-66
2021/04/30 09:06:08;;;;;;;;;;;23.10;37.80;;;;;;1486127;78;1929;-67
2021/04/30 09:08:09;;;;;;;;;;;23.10;38.10;;;;;;1479468;78;732;-66
2021/04/30 09:10:12;;;;;;;;;;;23.10;38.10;;;;;;1474682;78;885;-68
2021/04/30 09:12:15;;;;;;;;;;;23.20;38.20;;;;;;1476610;78;751;-66
2021/04/30 09:14:31;;;;;;;;;;;23.20;38.20;;;;;;1481343;78;728;-66
2021/04/30 09:16:35;;;;;;;;;;;23.30;38.10;;;;;;1481413;78;1179;-68
2021/04/30 09:18:37;;;;;;;;;;;23.30;38.10;;;;;;1479562;78;748;-66
2021/04/30 09:20:39;;;;;;;;;;;23.30;38.00;;;;;;1478974;78;743;-66
2021/04/30 09:22:42;;;;;;;;;;;23.30;37.80;;;;;;1480208;78;749;-66
2021/04/30 09:24:43;;;;;;;;;;;23.30;37.80;;;;;;1477254;78;1920;-66
2021/04/30 09:26:45;;;;;;;;;;;23.30;37.80;;;;;;1476292;78;1136;-68
2021/04/30 09:29:04;;;;;;;;;;;23.20;37.70;;;;;;1473601;78;766;-66
2021/04/30 09:31:06;;;;;;;;;;;23.20;37.70;;;;;;1472517;78;790;-69
2021/04/30 09:33:15;;;;;;;;;;;23.30;37.80;;;;;;1461341;80;740;-65
2021/04/30 09:35:18;;;;;;;;;;;23.30;37.80;;;;;;1472608;78;784;-67
2021/04/30 09:37:20;;;;;;;;;;;23.30;37.70;;;;;;1481605;78;1131;-68
2021/04/30 09:39:22;;;;;;;;;;;23.30;37.60;;;;;;1483080;78;747;-69
2021/04/30 09:41:24;;;;;;;;;;;23.40;37.50;;;;;;1493181;78;737;-67
2021/04/30 09:43:26;;;;;;;;;;;23.30;37.50;;;;;;1476440;79;804;-67
2021/04/30 09:45:28;;;;;;;;;;;23.30;37.40;;;;;;1474829;78;1942;-67
2021/04/30 09:47:36;;;;;;;;;;;23.30;37.30;;;;;;1483930;78;1138;-68
2021/04/30 09:49:38;;;;;;;;;;;23.30;37.40;;;;;;1489035;78;780;-67
2021/04/30 09:51:44;;;;;;;;;;;23.30;37.40;;;;;;1489901;78;754;-68
2021/04/30 09:53:46;;;;;;;;;;;23.30;37.30;;;;;;1480197;79;791;-68
2021/04/30 09:55:49;;;;;;;;;;;23.30;37.30;;;;;;1478798;78;1144;-68
2021/04/30 09:57:51;;;;;;;;;;;23.30;37.30;;;;;;1476641;78;781;-67
2021/04/30 09:59:54;;;;;;;;;;;23.40;37.30;;;;;;1488191;78;854;-68
2021/04/30 10:02:15;;;;;;;;;;;23.30;37.20;;;;;;1478909;79;729;-63
2021/04/30 10:04:24;;;;;;;;;;;23.50;37.20;;;;;;1485793;79;830;-67
2021/04/30 10:06:26;;;;;;;;;;;23.30;37.00;;;;;;1471989;80;1911;-74
2021/04/30 10:08:28;;;;;;;;;;;23.40;36.90;;;;;;1476134;79;796;-70
2021/04/30 10:10:30;;;;;;;;;;;23.30;37.00;;;;;;1477183;78;841;-69
2021/04/30 10:12:31;;;;;;;;;;;23.30;37.00;;;;;;1473528;78;779;-68
2021/04/30 10:14:33;;;;;;;;;;;23.30;37.00;;;;;;1476664;78;769;-69
2021/04/30 10:16:35;;;;;;;;;;;23.40;36.90;;;;;;1473964;78;1172;-68
2021/04/30 10:18:37;;;;;;;;;;;23.30;36.90;;;;;;1479334;78;893;-69
2021/04/30 10:20:39;;;;;;;;;;;23.40;36.80;;;;;;1470823;78;801;-68
2021/04/30 10:22:42;;;;;;;;;;;23.40;36.90;;;;;;1478486;79;711;-69
2021/04/30 10:24:46;;;;;;;;;;;23.40;36.80;;;;;;1476533;79;728;-68
2021/04/30 10:26:49;;;;;;;;;;;23.40;36.80;;;;;;1473341;78;1105;-67
2021/04/30 10:28:55;;;;;;;;;;;23.40;36.80;;;;;;1473426;78;837;-68
2021/04/30 10:30:59;;;;;;;;;;;23.30;36.80;;;;;;1469791;78;837;-68
2021/04/30 10:33:17;;;;;;;;;;;23.40;36.90;;;;;;1483908;78;801;-70
2021/04/30 10:35:33;;;;;;;;;;;23.40;36.90;;;;;;1474690;80;734;-70
2021/04/30 10:37:35;;;;;;;;;;;23.40;36.80;;;;;;1477737;78;1815;-68
2021/04/30 10:39:37;;;;;;;;;;;23.30;36.80;;;;;;1481548;78;741;-68
2021/04/30 10:41:39;;;;;;;;;;;23.30;36.80;;;;;;1472862;78;831;-68
2021/04/30 10:43:41;;;;;;;;;;;23.30;36.80;;;;;;1472986;78;812;-68
2021/04/30 10:45:43;;;;;;;;;;;23.30;36.90;;;;;;1473675;79;1940;-68
2021/04/30 10:48:05;;;;;;;;;;;23.40;36.80;;;;;;1473968;79;1114;-70
2021/04/30 10:50:11;;;;;;;;;;;23.30;36.80;;;;;;1483346;78;807;-69
2021/04/30 10:52:19;;;;;;;;;;;23.40;36.80;;;;;;1476207;78;918;-69
2021/04/30 10:54:30;;;;;;;;;;;23.40;36.80;;;;;;1476677;78;1710;-68
2021/04/30 10:56:33;;;;;;;;;;;23.30;36.80;;;;;;1477672;78;1119;-67
2021/04/30 10:58:35;;;;;;;;;;;23.30;36.80;;;;;;1483135;78;805;-70
2021/04/30 11:00:40;;;;;;;;;;;23.30;36.80;;;;;;1477068;78;761;-68
2021/04/30 11:02:41;;;;;;;;;;;23.30;36.80;;;;;;1476404;78;797;-69
2021/04/30 11:04:45;;;;;;;;;;;23.30;36.80;;;;;;1477955;78;741;-68
2021/04/30 11:06:48;;;;;;;;;;;23.40;36.70;;;;;;1469903;78;1949;-68
2021/04/30 11:08:51;;;;;;;;;;;23.30;36.80;;;;;;1475060;78;720;-68
2021/04/30 11:10:55;;;;;;;;;;;23.30;36.80;;;;;;1480002;78;687;-68
2021/04/30 11:12:58;;;;;;;;;;;23.30;36.80;;;;;;1474865;78;1533;-68
2021/04/30 11:15:08;;;;;;;;;;;23.30;36.70;;;;;;1468731;80;732;-66
2021/04/30 11:17:10;;;;;;;;;;;23.50;37.00;;;;;;1485628;78;1455;-65
2021/04/30 11:19:12;;;;;;;;;;;23.20;36.80;;;;;;1480882;78;698;-66
2021/04/30 11:21:16;;;;;;;;;;;23.20;36.70;;;;;;1472640;78;763;-65
2021/04/30 11:23:20;;;;;;;;;;;23.20;36.70;;;;;;1475747;78;1646;-64
2021/04/30 11:25:22;;;;;;;;;;;23.30;36.70;;;;;;1483780;79;1904;-65
2021/04/30 11:27:26;;;;;;;;;;;23.30;36.70;;;;;;1482132;78;1136;-66
2021/04/30 11:29:31;;;;;;;;;;;23.20;36.70;;;;;;1486867;78;770;-64
2021/04/30 11:31:33;;;;;;;;;;;23.20;36.70;;;;;;1479766;78;834;-65
2021/04/30 11:33:36;;;;;;;;;;;23.20;36.70;;;;;;1473688;78;791;-65
2021/04/30 11:35:38;;;;;;;;;;;23.20;36.70;;;;;;1484963;79;806;-64
2021/04/30 11:37:42;;;;;;;;;;;23.10;36.70;;;;;;1473340;78;1027;-65
2021/04/30 11:39:44;;;;;;;;;;;23.20;36.70;;;;;;1468708;78;832;-64
2021/04/30 11:41:46;;;;;;;;;;;23.20;36.80;;;;;;1468358;78;835;-66
2021/04/30 11:43:52;;;;;;;;;;;23.10;36.80;;;;;;1471172;80;806;-72
2021/04/30 11:45:54;;;;;;;;;;;23.20;36.80;;;;;;1472504;80;1946;-73
2021/04/30 11:47:58;;;;;;;;;;;23.00;36.80;;;;;;1480962;79;747;-66
2021/04/30 11:50:00;;;;;;;;;;;23.00;36.90;;;;;;1489107;78;782;-67
2021/04/30 11:52:02;;;;;;;;;;;23.00;37.70;;;;;;1478127;78;900;-68
2021/04/30 11:54:04;;;;;;;;;;;23.00;37.60;;;;;;1477056;78;776;-63
2021/04/30 11:56:06;;;;;;;;;;;23.00;38.40;;;;;;1491626;78;1188;-68
2021/04/30 11:58:08;;;;;;;;;;;23.00;38.20;;;;;;1485946;79;711;-66
2021/04/30 12:00:10;;;;;;;;;;;23.00;38.20;;;;;;1478761;79;882;-64
2021/04/30 12:02:12;;;;;;;;;;;22.90;38.60;;;;;;1477641;79;743;-66
2021/04/30 12:04:14;;;;;;;;;;;22.90;38.20;;;;;;1471570;80;711;-68
2021/04/30 12:06:17;;;;;;;;;;;23.00;38.70;;;;;;1486639;78;1924;-63
2021/04/30 12:08:18;;;;;;;;;;;23.00;38.50;;;;;;1481263;78;754;-68
2021/04/30 12:10:21;;;;;;;;;;;22.90;38.50;;;;;;1478825;78;721;-65